sensor_id;sensor_type;location;lat;lon;timestamp;P1;durP1;ratioP1;P2;durP2;ratioP2
52744;SDS011;38637;49.984;20.426;2024-03-23T00:53:03;10.40;;;9.45;;
52744;SDS011;38637;49.984;20.426;2024-03-23T00:55:29;11.50;;;8.88;;
52744;SDS011;38637;49.984;20.426;2024-03-23T00:57:54;9.53;;;7.70;;
52744;SDS011;38637;49.984;20.426;2024-03-23T01:00:19;12.00;;;9.20;;
52744;SDS011;38637;49.984;20.426;2024-03-23T01:02:45;9.73;;;8.73;;
52744;SDS011;38637;49.984;20.426;2024-03-23T01:05:11;10.67;;;9.57;;
52744;SDS011;38637;49.984;20.426;2024-03-23T01:07:36;9.23;;;8.00;;
52744;SDS011;38637;49.984;20.426;2024-03-23T01:10:01;9.80;;;7.63;;
52744;SDS011;38637;49.984;20.426;2024-03-23T01:12:27;12.00;;;8.27;;
52744;SDS011;38637;49.984;20.426;2024-03-23T01:14:52;11.07;;;8.70;;
52744;SDS011;38637;49.984;20.426;2024-03-23T01:17:17;9.70;;;7.57;;
52744;SDS011;38637;49.984;20.426;2024-03-23T01:19:43;8.57;;;7.60;;
52744;SDS011;38637;49.984;20.426;2024-03-23T01:22:08;9.67;;;8.13;;
52744;SDS011;38637;49.984;20.426;2024-03-23T01:24:35;9.18;;;7.85;;
52744;SDS011;38637;49.984;20.426;2024-03-23T01:27:00;11.47;;;8.63;;
52744;SDS011;38637;49.984;20.426;2024-03-23T01:29:26;9.70;;;8.80;;
52744;SDS011;38637;49.984;20.426;2024-03-23T01:31:51;10.20;;;8.10;;
52744;SDS011;38637;49.984;20.426;2024-03-23T01:34:16;9.60;;;7.00;;
52744;SDS011;38637;49.984;20.426;2024-03-23T01:36:42;8.43;;;7.53;;
52744;SDS011;38637;49.984;20.426;2024-03-23T01:39:07;9.40;;;7.57;;
52744;SDS011;38637;49.984;20.426;2024-03-23T01:41:34;8.80;;;7.38;;
52744;SDS011;38637;49.984;20.426;2024-03-23T01:44:00;8.65;;;6.93;;
52744;SDS011;38637;49.984;20.426;2024-03-23T01:46:31;6.72;;;6.03;;
52744;SDS011;38637;49.984;20.426;2024-03-23T01:48:56;7.83;;;6.80;;
52744;SDS011;38637;49.984;20.426;2024-03-23T01:51:22;10.87;;;7.00;;
52744;SDS011;38637;49.984;20.426;2024-03-23T01:53:48;7.93;;;6.20;;
52744;SDS011;38637;49.984;20.426;2024-03-23T01:56:14;6.57;;;5.87;;
52744;SDS011;38637;49.984;20.426;2024-03-23T01:58:39;7.53;;;6.83;;
52744;SDS011;38637;49.984;20.426;2024-03-23T02:01:04;11.13;;;7.03;;
52744;SDS011;38637;49.984;20.426;2024-03-23T02:03:30;7.50;;;5.77;;
52744;SDS011;38637;49.984;20.426;2024-03-23T02:05:55;7.47;;;6.73;;
52744;SDS011;38637;49.984;20.426;2024-03-23T02:08:21;7.37;;;6.10;;
52744;SDS011;38637;49.984;20.426;2024-03-23T02:10:48;7.72;;;6.03;;
52744;SDS011;38637;49.984;20.426;2024-03-23T02:13:14;11.20;;;7.20;;
52744;SDS011;38637;49.984;20.426;2024-03-23T02:15:40;8.40;;;6.43;;
52744;SDS011;38637;49.984;20.426;2024-03-23T02:18:07;7.97;;;7.27;;
52744;SDS011;38637;49.984;20.426;2024-03-23T02:20:32;10.57;;;6.75;;
52744;SDS011;38637;49.984;20.426;2024-03-23T02:22:58;9.50;;;7.20;;
52744;SDS011;38637;49.984;20.426;2024-03-23T02:25:23;7.20;;;6.17;;
52744;SDS011;38637;49.984;20.426;2024-03-23T02:27:48;7.53;;;6.10;;
52744;SDS011;38637;49.984;20.426;2024-03-23T02:30:14;6.77;;;6.17;;
52744;SDS011;38637;49.984;20.426;2024-03-23T02:32:40;8.10;;;6.33;;
52744;SDS011;38637;49.984;20.426;2024-03-23T02:35:06;7.18;;;5.80;;
52744;SDS011;38637;49.984;20.426;2024-03-23T02:37:31;8.33;;;5.77;;
52744;SDS011;38637;49.984;20.426;2024-03-23T02:39:57;6.57;;;5.93;;
52744;SDS011;38637;49.984;20.426;2024-03-23T02:42:23;7.95;;;6.07;;
52744;SDS011;38637;49.984;20.426;2024-03-23T02:44:48;6.73;;;5.97;;
52744;SDS011;38637;49.984;20.426;2024-03-23T02:47:14;9.53;;;6.60;;
52744;SDS011;38637;49.984;20.426;2024-03-23T02:49:39;7.60;;;6.07;;
52744;SDS011;38637;49.984;20.426;2024-03-23T02:52:04;6.73;;;5.77;;
52744;SDS011;38637;49.984;20.426;2024-03-23T02:54:30;7.40;;;6.47;;
52744;SDS011;38637;49.984;20.426;2024-03-23T02:56:55;8.37;;;6.37;;
52744;SDS011;38637;49.984;20.426;2024-03-23T02:59:20;5.73;;;5.20;;
52744;SDS011;38637;49.984;20.426;2024-03-23T03:01:46;8.63;;;6.23;;
52744;SDS011;38637;49.984;20.426;2024-03-23T03:04:11;8.37;;;7.37;;
52744;SDS011;38637;49.984;20.426;2024-03-23T03:06:36;13.73;;;8.17;;
52744;SDS011;38637;49.984;20.426;2024-03-23T03:09:02;12.07;;;8.70;;
52744;SDS011;38637;49.984;20.426;2024-03-23T03:11:27;11.97;;;8.83;;
52744;SDS011;38637;49.984;20.426;2024-03-23T03:13:52;10.67;;;7.90;;
52744;SDS011;38637;49.984;20.426;2024-03-23T03:16:18;9.30;;;7.33;;
52744;SDS011;38637;49.984;20.426;2024-03-23T03:18:43;9.83;;;7.27;;
52744;SDS011;38637;49.984;20.426;2024-03-23T03:21:11;7.90;;;6.97;;
52744;SDS011;38637;49.984;20.426;2024-03-23T03:23:37;9.77;;;7.33;;
52744;SDS011;38637;49.984;20.426;2024-03-23T03:26:03;8.25;;;7.35;;
52744;SDS011;38637;49.984;20.426;2024-03-23T03:28:28;9.30;;;7.30;;
52744;SDS011;38637;49.984;20.426;2024-03-23T03:30:56;10.45;;;7.15;;
52744;SDS011;38637;49.984;20.426;2024-03-23T03:33:22;12.02;;;7.55;;
52744;SDS011;38637;49.984;20.426;2024-03-23T03:35:47;11.30;;;7.53;;
52744;SDS011;38637;49.984;20.426;2024-03-23T03:38:12;8.87;;;7.40;;
52744;SDS011;38637;49.984;20.426;2024-03-23T03:40:38;8.37;;;7.47;;
52744;SDS011;38637;49.984;20.426;2024-03-23T03:43:03;8.57;;;7.70;;
52744;SDS011;38637;49.984;20.426;2024-03-23T03:45:29;11.17;;;8.10;;
52744;SDS011;38637;49.984;20.426;2024-03-23T03:47:54;9.73;;;8.13;;
52744;SDS011;38637;49.984;20.426;2024-03-23T03:50:21;9.17;;;7.73;;
52744;SDS011;38637;49.984;20.426;2024-03-23T03:52:47;9.40;;;8.32;;
52744;SDS011;38637;49.984;20.426;2024-03-23T03:55:13;9.07;;;7.80;;
52744;SDS011;38637;49.984;20.426;2024-03-23T03:57:39;11.60;;;8.00;;
52744;SDS011;38637;49.984;20.426;2024-03-23T04:00:04;10.63;;;8.77;;
52744;SDS011;38637;49.984;20.426;2024-03-23T04:02:31;13.77;;;9.30;;
52744;SDS011;38637;49.984;20.426;2024-03-23T04:04:56;10.73;;;8.60;;
52744;SDS011;38637;49.984;20.426;2024-03-23T04:07:22;12.53;;;9.13;;
52744;SDS011;38637;49.984;20.426;2024-03-23T04:09:48;11.23;;;9.97;;
52744;SDS011;38637;49.984;20.426;2024-03-23T04:12:14;12.57;;;10.32;;
52744;SDS011;38637;49.984;20.426;2024-03-23T04:14:40;13.47;;;10.40;;
52744;SDS011;38637;49.984;20.426;2024-03-23T04:17:05;12.27;;;10.97;;
52744;SDS011;38637;49.984;20.426;2024-03-23T04:19:30;14.17;;;11.70;;
52744;SDS011;38637;49.984;20.426;2024-03-23T04:21:56;13.20;;;10.67;;
52744;SDS011;38637;49.984;20.426;2024-03-23T04:24:21;16.23;;;11.93;;
52744;SDS011;38637;49.984;20.426;2024-03-23T04:26:47;19.52;;;11.95;;
52744;SDS011;38637;49.984;20.426;2024-03-23T04:29:12;14.17;;;11.00;;
52744;SDS011;38637;49.984;20.426;2024-03-23T04:31:38;13.27;;;11.37;;
52744;SDS011;38637;49.984;20.426;2024-03-23T04:34:03;14.80;;;12.30;;
52744;SDS011;38637;49.984;20.426;2024-03-23T04:36:29;18.53;;;13.53;;
52744;SDS011;38637;49.984;20.426;2024-03-23T04:38:56;15.53;;;12.57;;
52744;SDS011;38637;49.984;20.426;2024-03-23T04:43:47;15.80;;;14.38;;
52744;SDS011;38637;49.984;20.426;2024-03-23T04:46:12;13.20;;;10.57;;
52744;SDS011;38637;49.984;20.426;2024-03-23T04:48:38;13.93;;;10.77;;
52744;SDS011;38637;49.984;20.426;2024-03-23T04:51:03;17.13;;;11.17;;
52744;SDS011;38637;49.984;20.426;2024-03-23T04:53:29;18.93;;;11.83;;
52744;SDS011;38637;49.984;20.426;2024-03-23T04:55:57;16.23;;;11.40;;
52744;SDS011;38637;49.984;20.426;2024-03-23T04:58:24;19.60;;;12.32;;
52744;SDS011;38637;49.984;20.426;2024-03-23T05:00:56;13.80;;;11.57;;
52744;SDS011;38637;49.984;20.426;2024-03-23T05:03:22;16.40;;;14.60;;
52744;SDS011;38637;49.984;20.426;2024-03-23T05:05:48;18.63;;;12.43;;
52744;SDS011;38637;49.984;20.426;2024-03-23T05:08:14;16.27;;;11.05;;
52744;SDS011;38637;49.984;20.426;2024-03-23T05:10:40;14.30;;;11.20;;
52744;SDS011;38637;49.984;20.426;2024-03-23T05:13:06;15.63;;;11.00;;
52744;SDS011;38637;49.984;20.426;2024-03-23T05:15:31;15.33;;;12.03;;
52744;SDS011;38637;49.984;20.426;2024-03-23T05:17:57;17.93;;;11.90;;
52744;SDS011;38637;49.984;20.426;2024-03-23T05:20:22;15.10;;;12.63;;
52744;SDS011;38637;49.984;20.426;2024-03-23T05:22:47;15.93;;;12.47;;
52744;SDS011;38637;49.984;20.426;2024-03-23T05:25:13;19.40;;;12.80;;
52744;SDS011;38637;49.984;20.426;2024-03-23T05:27:38;21.23;;;15.60;;
52744;SDS011;38637;49.984;20.426;2024-03-23T05:30:04;23.10;;;14.77;;
52744;SDS011;38637;49.984;20.426;2024-03-23T05:32:30;19.52;;;14.95;;
52744;SDS011;38637;49.984;20.426;2024-03-23T05:34:56;19.90;;;15.57;;
52744;SDS011;38637;49.984;20.426;2024-03-23T05:37:22;19.83;;;14.67;;
52744;SDS011;38637;49.984;20.426;2024-03-23T05:39:48;16.23;;;12.82;;
52744;SDS011;38637;49.984;20.426;2024-03-23T05:42:15;18.02;;;15.23;;
52744;SDS011;38637;49.984;20.426;2024-03-23T05:44:46;18.17;;;13.57;;
52744;SDS011;38637;49.984;20.426;2024-03-23T05:47:12;19.15;;;14.13;;
52744;SDS011;38637;49.984;20.426;2024-03-23T05:49:39;16.58;;;14.10;;
52744;SDS011;38637;49.984;20.426;2024-03-23T05:52:06;16.65;;;14.05;;
52744;SDS011;38637;49.984;20.426;2024-03-23T05:54:34;19.92;;;14.70;;
52744;SDS011;38637;49.984;20.426;2024-03-23T05:57:00;17.92;;;14.85;;
52744;SDS011;38637;49.984;20.426;2024-03-23T05:59:25;18.77;;;15.23;;
52744;SDS011;38637;49.984;20.426;2024-03-23T06:01:52;18.92;;;15.43;;
52744;SDS011;38637;49.984;20.426;2024-03-23T06:04:17;20.33;;;14.50;;
52744;SDS011;38637;49.984;20.426;2024-03-23T06:06:42;15.50;;;13.20;;
52744;SDS011;38637;49.984;20.426;2024-03-23T06:09:08;19.93;;;14.20;;
52744;SDS011;38637;49.984;20.426;2024-03-23T06:11:33;18.83;;;10.93;;
52744;SDS011;38637;49.984;20.426;2024-03-23T06:13:58;15.27;;;12.37;;
52744;SDS011;38637;49.984;20.426;2024-03-23T06:16:23;15.63;;;11.27;;
52744;SDS011;38637;49.984;20.426;2024-03-23T06:18:50;17.03;;;13.60;;
52744;SDS011;38637;49.984;20.426;2024-03-23T06:21:15;21.98;;;12.30;;
52744;SDS011;38637;49.984;20.426;2024-03-23T06:23:41;21.03;;;13.67;;
52744;SDS011;38637;49.984;20.426;2024-03-23T06:26:07;17.25;;;12.93;;
52744;SDS011;38637;49.984;20.426;2024-03-23T06:28:33;18.52;;;13.52;;
52744;SDS011;38637;49.984;20.426;2024-03-23T06:30:58;26.37;;;14.50;;
52744;SDS011;38637;49.984;20.426;2024-03-23T06:33:24;21.20;;;15.37;;
52744;SDS011;38637;49.984;20.426;2024-03-23T06:35:52;20.20;;;15.10;;
52744;SDS011;38637;49.984;20.426;2024-03-23T06:38:18;22.20;;;15.07;;
52744;SDS011;38637;49.984;20.426;2024-03-23T06:40:43;24.67;;;14.33;;
52744;SDS011;38637;49.984;20.426;2024-03-23T06:43:13;20.27;;;13.93;;
52744;SDS011;38637;49.984;20.426;2024-03-23T06:45:39;17.90;;;13.50;;
52744;SDS011;38637;49.984;20.426;2024-03-23T06:48:04;18.07;;;14.73;;
52744;SDS011;38637;49.984;20.426;2024-03-23T06:50:32;22.33;;;16.17;;
52744;SDS011;38637;49.984;20.426;2024-03-23T06:52:58;26.77;;;18.30;;
52744;SDS011;38637;49.984;20.426;2024-03-23T06:55:24;23.37;;;16.90;;
52744;SDS011;38637;49.984;20.426;2024-03-23T06:57:51;22.98;;;16.42;;
52744;SDS011;38637;49.984;20.426;2024-03-23T07:00:17;29.47;;;16.70;;
52744;SDS011;38637;49.984;20.426;2024-03-23T07:02:43;19.97;;;13.77;;
52744;SDS011;38637;49.984;20.426;2024-03-23T07:05:09;19.30;;;13.25;;
52744;SDS011;38637;49.984;20.426;2024-03-23T07:07:35;17.63;;;12.73;;
52744;SDS011;38637;49.984;20.426;2024-03-23T07:10:01;13.33;;;10.90;;
52744;SDS011;38637;49.984;20.426;2024-03-23T07:12:26;14.53;;;11.50;;
52744;SDS011;38637;49.984;20.426;2024-03-23T07:14:51;12.57;;;9.83;;
52744;SDS011;38637;49.984;20.426;2024-03-23T07:17:17;11.93;;;9.97;;
52744;SDS011;38637;49.984;20.426;2024-03-23T07:19:43;13.20;;;10.75;;
52744;SDS011;38637;49.984;20.426;2024-03-23T07:22:08;10.67;;;9.57;;
52744;SDS011;38637;49.984;20.426;2024-03-23T07:24:34;14.30;;;11.00;;
52744;SDS011;38637;49.984;20.426;2024-03-23T07:26:59;13.07;;;11.50;;
52744;SDS011;38637;49.984;20.426;2024-03-23T07:29:25;13.20;;;10.63;;
52744;SDS011;38637;49.984;20.426;2024-03-23T07:31:50;15.57;;;10.73;;
52744;SDS011;38637;49.984;20.426;2024-03-23T07:34:15;12.87;;;9.90;;
52744;SDS011;38637;49.984;20.426;2024-03-23T07:36:41;14.30;;;10.77;;
52744;SDS011;38637;49.984;20.426;2024-03-23T07:39:06;23.63;;;11.57;;
52744;SDS011;38637;49.984;20.426;2024-03-23T07:41:33;15.63;;;12.27;;
52744;SDS011;38637;49.984;20.426;2024-03-23T07:43:58;18.63;;;11.63;;
52744;SDS011;38637;49.984;20.426;2024-03-23T07:46:24;24.30;;;16.63;;
52744;SDS011;38637;49.984;20.426;2024-03-23T07:48:50;20.40;;;14.10;;
52744;SDS011;38637;49.984;20.426;2024-03-23T07:51:17;21.40;;;16.25;;
52744;SDS011;38637;49.984;20.426;2024-03-23T07:53:44;16.40;;;12.15;;
52744;SDS011;38637;49.984;20.426;2024-03-23T07:56:13;14.10;;;11.75;;
52744;SDS011;38637;49.984;20.426;2024-03-23T07:58:44;13.50;;;11.25;;
52744;SDS011;38637;49.984;20.426;2024-03-23T08:01:10;15.40;;;12.02;;
52744;SDS011;38637;49.984;20.426;2024-03-23T08:03:37;14.90;;;13.00;;
52744;SDS011;38637;49.984;20.426;2024-03-23T08:08:37;19.10;;;12.70;;
52744;SDS011;38637;49.984;20.426;2024-03-23T08:11:03;15.13;;;12.02;;
52744;SDS011;38637;49.984;20.426;2024-03-23T08:13:29;14.35;;;12.30;;
52744;SDS011;38637;49.984;20.426;2024-03-23T08:15:58;23.83;;;14.52;;
52744;SDS011;38637;49.984;20.426;2024-03-23T08:18:28;19.08;;;11.77;;
52744;SDS011;38637;49.984;20.426;2024-03-23T08:21:01;21.17;;;12.88;;
52744;SDS011;38637;49.984;20.426;2024-03-23T08:23:28;13.52;;;10.57;;
52744;SDS011;38637;49.984;20.426;2024-03-23T08:25:58;20.60;;;12.98;;
52744;SDS011;38637;49.984;20.426;2024-03-23T08:28:24;11.23;;;9.50;;
52744;SDS011;38637;49.984;20.426;2024-03-23T08:30:50;15.18;;;10.18;;
52744;SDS011;38637;49.984;20.426;2024-03-23T08:33:16;14.10;;;9.05;;
52744;SDS011;38637;49.984;20.426;2024-03-23T08:35:41;16.40;;;9.70;;
52744;SDS011;38637;49.984;20.426;2024-03-23T08:38:07;10.98;;;9.25;;
52744;SDS011;38637;49.984;20.426;2024-03-23T08:40:32;12.60;;;9.87;;
52744;SDS011;38637;49.984;20.426;2024-03-23T08:42:58;15.37;;;10.07;;
52744;SDS011;38637;49.984;20.426;2024-03-23T08:45:24;30.33;;;16.47;;
52744;SDS011;38637;49.984;20.426;2024-03-23T08:47:50;20.05;;;12.02;;
52744;SDS011;38637;49.984;20.426;2024-03-23T08:50:16;16.33;;;10.77;;
52744;SDS011;38637;49.984;20.426;2024-03-23T08:52:41;11.23;;;9.20;;
52744;SDS011;38637;49.984;20.426;2024-03-23T08:55:06;11.97;;;8.70;;
52744;SDS011;38637;49.984;20.426;2024-03-23T08:57:32;15.80;;;9.07;;
52744;SDS011;38637;49.984;20.426;2024-03-23T08:59:57;25.93;;;14.90;;
52744;SDS011;38637;49.984;20.426;2024-03-23T09:02:23;11.07;;;8.43;;
52744;SDS011;38637;49.984;20.426;2024-03-23T09:04:48;9.10;;;8.17;;
52744;SDS011;38637;49.984;20.426;2024-03-23T09:07:13;10.67;;;7.37;;
52744;SDS011;38637;49.984;20.426;2024-03-23T09:09:39;11.87;;;7.83;;
52744;SDS011;38637;49.984;20.426;2024-03-23T09:12:05;9.73;;;7.55;;
52744;SDS011;38637;49.984;20.426;2024-03-23T09:14:31;14.60;;;7.82;;
52744;SDS011;38637;49.984;20.426;2024-03-23T09:16:58;13.45;;;7.20;;
52744;SDS011;38637;49.984;20.426;2024-03-23T09:19:23;7.00;;;5.30;;
52744;SDS011;38637;49.984;20.426;2024-03-23T09:21:48;8.80;;;6.10;;
52744;SDS011;38637;49.984;20.426;2024-03-23T09:24:14;6.93;;;3.00;;
52744;SDS011;38637;49.984;20.426;2024-03-23T09:26:39;4.27;;;3.67;;
52744;SDS011;38637;49.984;20.426;2024-03-23T09:29:05;9.00;;;3.90;;
52744;SDS011;38637;49.984;20.426;2024-03-23T09:31:30;6.83;;;3.30;;
52744;SDS011;38637;49.984;20.426;2024-03-23T09:33:56;6.05;;;3.38;;
52744;SDS011;38637;49.984;20.426;2024-03-23T09:36:23;6.78;;;3.75;;
52744;SDS011;38637;49.984;20.426;2024-03-23T09:38:48;7.37;;;3.50;;
52744;SDS011;38637;49.984;20.426;2024-03-23T09:41:13;8.67;;;3.20;;
52744;SDS011;38637;49.984;20.426;2024-03-23T09:43:40;7.30;;;3.25;;
52744;SDS011;38637;49.984;20.426;2024-03-23T09:46:05;4.23;;;3.30;;
52744;SDS011;38637;49.984;20.426;2024-03-23T09:48:31;7.83;;;3.27;;
52744;SDS011;38637;49.984;20.426;2024-03-23T09:50:56;8.90;;;4.13;;
52744;SDS011;38637;49.984;20.426;2024-03-23T09:53:22;3.53;;;3.20;;
52744;SDS011;38637;49.984;20.426;2024-03-23T09:55:47;5.88;;;3.53;;
52744;SDS011;38637;49.984;20.426;2024-03-23T09:58:17;11.27;;;4.07;;
52744;SDS011;38637;49.984;20.426;2024-03-23T10:00:43;12.23;;;3.72;;
52744;SDS011;38637;49.984;20.426;2024-03-23T10:03:08;5.90;;;4.13;;
52744;SDS011;38637;49.984;20.426;2024-03-23T10:05:36;8.00;;;3.45;;
52744;SDS011;38637;49.984;20.426;2024-03-23T10:08:23;6.20;;;2.35;;
52744;SDS011;38637;49.984;20.426;2024-03-23T10:10:48;5.18;;;2.88;;
52744;SDS011;38637;49.984;20.426;2024-03-23T10:13:25;5.97;;;2.83;;
52744;SDS011;38637;49.984;20.426;2024-03-23T10:15:57;5.40;;;2.80;;
52744;SDS011;38637;49.984;20.426;2024-03-23T10:18:24;2.75;;;2.38;;
52744;SDS011;38637;49.984;20.426;2024-03-23T10:20:50;4.45;;;2.67;;
52744;SDS011;38637;49.984;20.426;2024-03-23T10:23:39;7.78;;;2.10;;
52744;SDS011;38637;49.984;20.426;2024-03-23T10:28:54;6.55;;;1.90;;
52744;SDS011;38637;49.984;20.426;2024-03-23T10:31:35;2.75;;;2.00;;
52744;SDS011;38637;49.984;20.426;2024-03-23T10:34:06;9.25;;;2.95;;
52744;SDS011;38637;49.984;20.426;2024-03-23T10:36:32;10.15;;;2.83;;
52744;SDS011;38637;49.984;20.426;2024-03-23T10:38:59;4.97;;;1.70;;
52744;SDS011;38637;49.984;20.426;2024-03-23T10:41:28;4.63;;;1.80;;
52744;SDS011;38637;49.984;20.426;2024-03-23T10:43:56;5.50;;;2.20;;
52744;SDS011;38637;49.984;20.426;2024-03-23T10:46:22;3.05;;;1.75;;
52744;SDS011;38637;49.984;20.426;2024-03-23T10:48:48;7.13;;;1.97;;
52744;SDS011;38637;49.984;20.426;2024-03-23T10:51:14;6.15;;;2.10;;
52744;SDS011;38637;49.984;20.426;2024-03-23T10:53:39;10.50;;;2.37;;
52744;SDS011;38637;49.984;20.426;2024-03-23T10:56:05;3.67;;;2.40;;
52744;SDS011;38637;49.984;20.426;2024-03-23T10:58:41;6.00;;;2.00;;
52744;SDS011;38637;49.984;20.426;2024-03-23T11:01:11;8.15;;;2.15;;
52744;SDS011;38637;49.984;20.426;2024-03-23T11:03:38;2.75;;;1.60;;
52744;SDS011;38637;49.984;20.426;2024-03-23T11:08:30;3.83;;;1.75;;
52744;SDS011;38637;49.984;20.426;2024-03-23T11:13:47;4.97;;;1.85;;
52744;SDS011;38637;49.984;20.426;2024-03-23T11:18:46;8.82;;;2.88;;
52744;SDS011;38637;49.984;20.426;2024-03-23T11:21:51;5.07;;;2.00;;
52744;SDS011;38637;49.984;20.426;2024-03-23T11:24:16;7.10;;;2.55;;
52744;SDS011;38637;49.984;20.426;2024-03-23T11:26:41;5.60;;;2.27;;
52744;SDS011;38637;49.984;20.426;2024-03-23T11:29:13;8.30;;;2.30;;
52744;SDS011;38637;49.984;20.426;2024-03-23T11:31:46;6.97;;;2.10;;
52744;SDS011;38637;49.984;20.426;2024-03-23T11:34:12;4.32;;;1.90;;
52744;SDS011;38637;49.984;20.426;2024-03-23T11:36:39;8.70;;;2.45;;
52744;SDS011;38637;49.984;20.426;2024-03-23T11:39:15;2.07;;;1.70;;
52744;SDS011;38637;49.984;20.426;2024-03-23T11:41:52;2.83;;;2.13;;
52744;SDS011;38637;49.984;20.426;2024-03-23T11:44:19;14.52;;;2.13;;
52744;SDS011;38637;49.984;20.426;2024-03-23T11:46:46;5.32;;;2.13;;
52744;SDS011;38637;49.984;20.426;2024-03-23T11:52:06;10.90;;;2.00;;
52744;SDS011;38637;49.984;20.426;2024-03-23T11:54:32;3.63;;;2.05;;
52744;SDS011;38637;49.984;20.426;2024-03-23T11:57:04;5.67;;;2.10;;
52744;SDS011;38637;49.984;20.426;2024-03-23T12:02:06;14.18;;;2.30;;
52744;SDS011;38637;49.984;20.426;2024-03-23T12:04:32;14.35;;;2.63;;
52744;SDS011;38637;49.984;20.426;2024-03-23T12:07:19;10.67;;;2.37;;
52744;SDS011;38637;49.984;20.426;2024-03-23T12:09:46;3.95;;;1.73;;
52744;SDS011;38637;49.984;20.426;2024-03-23T12:12:16;7.28;;;2.08;;
52744;SDS011;38637;49.984;20.426;2024-03-23T12:14:42;3.63;;;1.70;;
52744;SDS011;38637;49.984;20.426;2024-03-23T12:17:17;12.82;;;2.78;;
52744;SDS011;38637;49.984;20.426;2024-03-23T12:19:46;8.10;;;2.13;;
52744;SDS011;38637;49.984;20.426;2024-03-23T12:22:12;3.77;;;1.87;;
52744;SDS011;38637;49.984;20.426;2024-03-23T12:24:37;5.00;;;2.10;;
52744;SDS011;38637;49.984;20.426;2024-03-23T12:29:30;3.28;;;1.77;;
52744;SDS011;38637;49.984;20.426;2024-03-23T12:31:59;9.15;;;2.08;;
52744;SDS011;38637;49.984;20.426;2024-03-23T12:36:51;10.40;;;1.75;;
52744;SDS011;38637;49.984;20.426;2024-03-23T12:39:16;8.13;;;2.27;;
52744;SDS011;38637;49.984;20.426;2024-03-23T12:41:41;3.43;;;1.80;;
52744;SDS011;38637;49.984;20.426;2024-03-23T12:44:07;11.50;;;2.10;;
52744;SDS011;38637;49.984;20.426;2024-03-23T12:46:34;10.10;;;1.75;;
52744;SDS011;38637;49.984;20.426;2024-03-23T12:48:59;5.13;;;2.03;;
52744;SDS011;38637;49.984;20.426;2024-03-23T12:51:25;11.37;;;1.87;;
52744;SDS011;38637;49.984;20.426;2024-03-23T12:53:50;7.43;;;1.90;;
52744;SDS011;38637;49.984;20.426;2024-03-23T12:56:15;10.77;;;1.80;;
52744;SDS011;38637;49.984;20.426;2024-03-23T12:58:41;35.40;;;3.33;;
52744;SDS011;38637;49.984;20.426;2024-03-23T13:01:06;18.53;;;3.27;;
52744;SDS011;38637;49.984;20.426;2024-03-23T13:03:31;9.30;;;3.03;;
52744;SDS011;38637;49.984;20.426;2024-03-23T13:05:57;20.67;;;2.50;;
52744;SDS011;38637;49.984;20.426;2024-03-23T13:08:22;10.33;;;2.57;;
52744;SDS011;38637;49.984;20.426;2024-03-23T13:10:51;6.67;;;2.30;;
52744;SDS011;38637;49.984;20.426;2024-03-23T13:13:16;9.25;;;1.90;;
52744;SDS011;38637;49.984;20.426;2024-03-23T13:15:42;17.70;;;3.63;;
52744;SDS011;38637;49.984;20.426;2024-03-23T13:18:07;27.70;;;2.67;;
52744;SDS011;38637;49.984;20.426;2024-03-23T13:20:35;11.37;;;2.13;;
52744;SDS011;38637;49.984;20.426;2024-03-23T13:23:01;6.60;;;1.42;;
52744;SDS011;38637;49.984;20.426;2024-03-23T13:25:26;26.77;;;4.00;;
52744;SDS011;38637;49.984;20.426;2024-03-23T13:27:51;6.93;;;2.00;;
52744;SDS011;38637;49.984;20.426;2024-03-23T13:30:17;4.27;;;1.77;;
52744;SDS011;38637;49.984;20.426;2024-03-23T13:32:42;8.00;;;2.47;;
52744;SDS011;38637;49.984;20.426;2024-03-23T13:35:07;14.33;;;1.70;;
52744;SDS011;38637;49.984;20.426;2024-03-23T13:37:32;9.23;;;1.43;;
52744;SDS011;38637;49.984;20.426;2024-03-23T13:39:58;9.60;;;1.80;;
52744;SDS011;38637;49.984;20.426;2024-03-23T13:42:24;4.57;;;1.63;;
52744;SDS011;38637;49.984;20.426;2024-03-23T13:44:51;4.78;;;2.00;;
52744;SDS011;38637;49.984;20.426;2024-03-23T13:47:16;17.00;;;2.03;;
52744;SDS011;38637;49.984;20.426;2024-03-23T13:49:41;17.47;;;2.53;;
52744;SDS011;38637;49.984;20.426;2024-03-23T13:52:06;11.70;;;1.97;;
52744;SDS011;38637;49.984;20.426;2024-03-23T13:54:32;4.67;;;1.80;;
52744;SDS011;38637;49.984;20.426;2024-03-23T13:56:58;11.40;;;2.43;;
52744;SDS011;38637;49.984;20.426;2024-03-23T13:59:23;56.80;;;3.87;;
52744;SDS011;38637;49.984;20.426;2024-03-23T14:01:49;8.50;;;1.80;;
52744;SDS011;38637;49.984;20.426;2024-03-23T14:04:15;5.13;;;1.80;;
52744;SDS011;38637;49.984;20.426;2024-03-23T14:06:48;4.47;;;1.70;;
52744;SDS011;38637;49.984;20.426;2024-03-23T14:09:13;3.50;;;2.53;;
52744;SDS011;38637;49.984;20.426;2024-03-23T14:11:39;3.05;;;1.60;;
52744;SDS011;38637;49.984;20.426;2024-03-23T14:14:07;9.90;;;1.85;;
52744;SDS011;38637;49.984;20.426;2024-03-23T14:16:33;5.57;;;1.70;;
52744;SDS011;38637;49.984;20.426;2024-03-23T14:18:58;7.43;;;2.10;;
52744;SDS011;38637;49.984;20.426;2024-03-23T14:21:24;3.50;;;1.60;;
52744;SDS011;38637;49.984;20.426;2024-03-23T14:23:49;8.47;;;1.73;;
52744;SDS011;38637;49.984;20.426;2024-03-23T14:26:15;12.23;;;2.20;;
52744;SDS011;38637;49.984;20.426;2024-03-23T14:28:40;12.30;;;1.90;;
52744;SDS011;38637;49.984;20.426;2024-03-23T14:31:06;13.00;;;1.73;;
52744;SDS011;38637;49.984;20.426;2024-03-23T14:33:35;9.13;;;1.50;;
52744;SDS011;38637;49.984;20.426;2024-03-23T14:36:02;6.53;;;1.50;;
52744;SDS011;38637;49.984;20.426;2024-03-23T14:38:28;4.38;;;1.20;;
52744;SDS011;38637;49.984;20.426;2024-03-23T14:40:57;8.23;;;1.40;;
52744;SDS011;38637;49.984;20.426;2024-03-23T14:43:23;8.18;;;1.58;;
52744;SDS011;38637;49.984;20.426;2024-03-23T14:48:34;5.97;;;1.40;;
52744;SDS011;38637;49.984;20.426;2024-03-23T14:51:00;14.37;;;1.90;;
52744;SDS011;38637;49.984;20.426;2024-03-23T14:53:26;4.20;;;1.65;;
52744;SDS011;38637;49.984;20.426;2024-03-23T14:55:55;4.53;;;1.40;;
52744;SDS011;38637;49.984;20.426;2024-03-23T14:58:21;9.40;;;1.92;;
52744;SDS011;38637;49.984;20.426;2024-03-23T15:00:47;5.80;;;2.17;;
52744;SDS011;38637;49.984;20.426;2024-03-23T15:03:13;10.70;;;2.27;;
52744;SDS011;38637;49.984;20.426;2024-03-23T15:05:38;17.30;;;3.70;;
52744;SDS011;38637;49.984;20.426;2024-03-23T15:08:04;116.67;;;10.93;;
52744;SDS011;38637;49.984;20.426;2024-03-23T15:10:30;26.48;;;3.25;;
52744;SDS011;38637;49.984;20.426;2024-03-23T15:12:58;16.85;;;2.45;;
52744;SDS011;38637;49.984;20.426;2024-03-23T15:15:23;11.40;;;2.17;;
52744;SDS011;38637;49.984;20.426;2024-03-23T15:17:48;7.93;;;1.37;;
52744;SDS011;38637;49.984;20.426;2024-03-23T15:20:15;2.90;;;1.35;;
52744;SDS011;38637;49.984;20.426;2024-03-23T15:22:40;11.30;;;1.57;;
52744;SDS011;38637;49.984;20.426;2024-03-23T15:25:07;10.75;;;1.30;;
52744;SDS011;38637;49.984;20.426;2024-03-23T15:27:33;3.38;;;1.10;;
52744;SDS011;38637;49.984;20.426;2024-03-23T15:29:58;6.27;;;1.00;;
52744;SDS011;38637;49.984;20.426;2024-03-23T15:32:24;5.77;;;0.90;;
52744;SDS011;38637;49.984;20.426;2024-03-23T15:34:49;3.03;;;1.20;;
52744;SDS011;38637;49.984;20.426;2024-03-23T15:37:14;7.40;;;1.47;;
52744;SDS011;38637;49.984;20.426;2024-03-23T15:39:40;3.77;;;0.80;;